HKG weather

Hong Kong International Airport
Hong Kong, Hong Kong

Public forecast

Using degrees Celsius for public forecast. Weather courtesy of forecast.io.

Current aviation weather report (METAR) for Hong Kong International Airport

Retrieved 2019/11/17 06:30 UTC (0 seconds ago):

VHHH 170630Z 26009KT 9999 FEW030 27/19 Q1013 NOSIG

Aviation forecast (TAF) for Hong Kong International Airport

Retrieved 2019/11/17 06:21 UTC (0 seconds ago):

TAF VHHH 170500Z 1706/1812 27010KT 8000 FEW030 TX27/1706Z TX27/1806Z TN21/1722Z BECMG 1709/1711 VRB05KT BECMG 1721/1723 35010KT TEMPO 1809/1812 35015G25KT